Saint Thomas, ND (58276)

9:16 AM CDT on July 23, 2016 (GMT -0500)
NE St Thomas | | Change Station

Elev 814 ft 48.66 °N, 97.38 °W | Updated 1 minute ago

Light Rain
Light Rain
64.9 °F
Feels Like 64.9 °F
N
2.0
Wind Variable Wind from NNE
Gusts 4.0 mph

Today
High -- | Low -- °F
--% Chance of Precip.
Yesterday
High -- | Low -- °F
Precip. -- in
Pressure 29.86 in
Visibility 2.0 miles
Clouds Mostly Cloudy 100 ft
Mostly Cloudy 2200 ft
Overcast 4600 ft
Dew Point 63 °F
Humidity 94%
Rainfall 0.02 in
Snow Depth Not available.
5:53 AM 9:18 PM
Waning Gibbous, 85% visible
METAR K2C8 231355Z AUTO 03003KT 2SM -RA BKN001 BKN022 OVC046 18/17 A2986 RMK AO2 P0001
Pressure 29.86 in
Visibility 2.0 miles
Clouds Mostly Cloudy 100 ft
Mostly Cloudy 2200 ft
Overcast 4600 ft
Dew Point 63 °F
Humidity 94%
Rainfall 0.02 in
Snow Depth Not available.
5:53 AM 9:18 PM
Waning Gibbous, 85% visible
METAR K2C8 231355Z AUTO 03003KT 2SM -RA BKN001 BKN022 OVC046 18/17 A2986 RMK AO2 P0001

10-Day Weather Forecast

Almanac

Astronomy

Jul. 23, 2016 Rise Set
Actual Time
Civil Twilight
Nautical Twilight
Astronomical Twilight
Moon
Length of Visible Light
Length of Day
Tomorrow will be .
, % of the Moon is Illuminated

Today's Extremes

State Highs State Lows

Community

WunderPhotos

Upload Photos

1,926,821 photos uploaded!

WunderBlog® & News

Nearby

Air Quality

  Air Quality AQ Index Pollutant
Not available.

Snow Depth

Station Depth Elevation

Earthquake Activity

City Distance Mag. Time & Date
Minimum magnitude displayed is 2.5.

Coastal Water Temperatures

Place Temperature

Stations

Nearby Weather Stations

Station Location Temp. Windchill Dew Point Humidity Wind Precip. Elev Updated Type
                   

Watches & Warnings

There are currently no watches in effect.